Time;durP1;ratioP1;P1;durP2;ratioP2;P2;SDS_P1;SDS_P2;PMS_P1;PMS_P2;Temp;Humidity;BMP_temperature;BMP_pressure;BME280_temperature;BME280_humidity;BME280_pressure;Samples;Min_cycle;Max_cycle;Signal;HPM_P1;HPM_P2
2022/09/23 00:00:26;;;;;;;23.02;19.45;;;;;;;7.52;100.00;101793.31;6097182;23;20007;-76
2022/09/23 00:02:52;;;;;;;24.65;19.15;;;;;;;7.59;100.00;101806.81;6097412;23;20341;-77
2022/09/23 00:05:18;;;;;;;21.92;18.48;;;;;;;7.57;100.00;101809.44;6097182;23;20002;-76
2022/09/23 00:07:43;;;;;;;24.60;18.95;;;;;;;7.46;100.00;101793.53;6097221;23;20007;-76
2022/09/23 00:10:09;;;;;;;23.98;19.10;;;;;;;7.50;100.00;101796.84;6097530;23;20011;-76
2022/09/23 00:12:34;;;;;;;23.30;18.63;;;;;;;7.55;100.00;101800.09;6097277;23;20014;-79
2022/09/23 00:15:00;;;;;;;22.38;18.77;;;;;;;7.54;100.00;101793.25;6097215;23;20081;-78
2022/09/23 00:17:26;;;;;;;21.95;19.15;;;;;;;7.47;100.00;101790.06;6096921;23;20007;-80
2022/09/23 00:19:53;;;;;;;27.05;20.98;;;;;;;7.41;100.00;101770.56;6070893;23;20017;-76
2022/09/23 00:22:18;;;;;;;24.92;20.13;;;;;;;7.33;100.00;101756.31;6097122;23;20014;-76
2022/09/23 00:24:43;;;;;;;24.00;19.40;;;;;;;7.39;100.00;101771.53;6097404;23;20013;-79
2022/09/23 00:27:09;;;;;;;25.30;19.90;;;;;;;7.53;100.00;101789.03;6070696;23;20006;-76
2022/09/23 00:29:35;;;;;;;25.92;20.30;;;;;;;7.52;100.00;101789.91;6097289;23;20009;-76
2022/09/23 00:32:01;;;;;;;26.17;20.98;;;;;;;7.51;100.00;101790.81;6096862;23;20017;-77
2022/09/23 00:34:27;;;;;;;24.75;20.95;;;;;;;7.49;100.00;101783.16;6096896;23;20006;-80
2022/09/23 00:36:52;;;;;;;25.52;19.30;;;;;;;7.48;100.00;101781.50;6097089;23;20433;-76
2022/09/23 00:39:17;;;;;;;30.35;20.70;;;;;;;7.29;100.00;101758.16;6096906;23;20010;-76
2022/09/23 00:41:42;;;;;;;24.30;19.52;;;;;;;7.34;100.00;101763.97;6097333;23;20015;-77
2022/09/23 00:44:40;;;;;;;23.15;19.10;;;;;;;7.39;100.00;101777.50;6097182;23;20053;-75
2022/09/23 00:47:40;;;;;;;22.92;19.13;;;;;;;7.36;100.00;101776.75;6097162;23;20302;-80
2022/09/23 00:50:11;;;;;;;23.35;19.58;;;;;;;7.15;100.00;101748.34;6096978;23;20017;-76
2022/09/23 00:52:36;;;;;;;30.70;21.00;;;;;;;7.28;100.00;101769.31;6096753;23;20011;-77
2022/09/23 00:55:09;;;;;;;25.40;19.95;;;;;;;7.26;100.00;101765.94;6097271;23;20002;-76
2022/09/23 00:57:37;;;;;;;25.83;21.27;;;;;;;7.19;100.00;101762.78;6096655;23;20089;-76
2022/09/23 01:00:04;;;;;;;28.65;21.48;;;;;;;7.22;100.00;101776.41;6097160;23;20006;-77
2022/09/23 01:02:30;;;;;;;23.05;20.55;;;;;;;7.18;100.00;101767.97;6096895;23;20014;-75
2022/09/23 01:04:56;;;;;;;23.55;20.70;;;;;;;7.03;100.00;101743.63;6096907;23;20333;-77
2022/09/23 01:07:21;;;;;;;25.88;20.90;;;;;;;7.12;100.00;101765.59;6096597;23;20003;-75
2022/09/23 01:09:48;;;;;;;25.70;21.25;;;;;;;6.98;100.00;101748.09;6096937;23;20010;-74
2022/09/23 01:12:33;;;;;;;28.45;22.35;;;;;;;7.08;100.00;101764.88;6097034;23;20038;-79
2022/09/23 01:15:13;;;;;;;24.90;21.48;;;;;;;7.06;100.00;101764.06;6097206;23;20372;-76
2022/09/23 01:18:04;;;;;;;25.17;21.67;;;;;;;6.99;100.00;101765.16;6096860;23;20472;-76
2022/09/23 01:20:41;;;;;;;26.10;20.63;;;;;;;7.00;100.00;101761.69;6008514;23;20342;-77
2022/09/23 01:23:20;;;;;;;25.20;20.13;;;;;;;6.97;100.00;101764.34;6008425;23;20451;-80
2022/09/23 01:26:09;;;;;;;25.88;20.27;;;;;;;6.95;100.00;101763.56;6008349;23;20500;-76
2022/09/23 01:28:59;;;;;;;23.88;20.00;;;;;;;6.85;100.00;101757.06;6008709;23;20031;-77
2022/09/23 01:31:49;;;;;;;24.27;20.27;;;;;;;6.90;100.00;101765.47;6008461;23;20087;-79
2022/09/23 01:34:23;;;;;;;25.30;20.85;;;;;;;6.81;100.00;101752.94;6008374;23;20007;-76
2022/09/23 01:37:15;;;;;;;23.98;20.10;;;;;;;6.86;100.00;101757.00;5984903;23;20011;-77
2022/09/23 01:40:09;;;;;;;25.58;20.52;;;;;;;6.82;100.00;101745.16;5987982;23;20316;-77
2022/09/23 01:42:52;;;;;;;24.70;20.35;;;;;;;6.74;100.00;101743.72;6008831;23;20012;-75
2022/09/23 01:45:25;;;;;;;26.15;20.98;;;;;;;6.59;100.00;101727.13;6008451;23;20019;-75
2022/09/23 01:48:01;;;;;;;24.98;21.35;;;;;;;6.76;100.00;101747.09;6010178;23;20015;-74
2022/09/23 01:53:22;;;;;;;;;;;;;;;6.75;100.00;101745.41;6010395;23;20023;-76
2022/09/23 01:55:52;;;;;;;25.42;20.35;;;;;;;6.52;100.00;101716.19;6010096;23;19914;-76
2022/09/23 01:58:34;;;;;;;25.00;19.88;;;;;;;6.63;100.00;101727.84;6080021;23;20469;-77
2022/09/23 02:01:06;;;;;;;25.52;20.95;;;;;;;6.37;100.00;101688.44;6098605;23;20011;-77
2022/09/23 02:03:42;;;;;;;27.13;21.55;;;;;;;6.72;100.00;101746.34;6097804;23;20006;-80
2022/09/23 02:06:18;;;;;;;25.20;20.88;;;;;;;6.55;100.00;101715.25;6098308;23;20044;-79
2022/09/23 02:08:51;;;;;;;25.33;22.02;;;;;;;6.68;100.00;101736.22;6098128;23;20089;-80
2022/09/23 02:11:16;;;;;;;26.52;20.67;;;;;;;6.74;100.00;101736.88;6098228;23;20002;-79
2022/09/23 02:13:53;;;;;;;25.05;20.20;;;;;;;6.66;100.00;101725.16;6098326;23;20017;-79
2022/09/23 02:16:21;;;;;;;26.23;21.63;;;;;;;6.77;100.00;101741.06;6072494;23;20010;-79
2022/09/23 02:18:53;;;;;;;23.20;20.27;;;;;;;6.63;100.00;101708.16;6098087;23;20089;-80
2022/09/23 02:21:23;;;;;;;32.15;21.48;;;;;;;6.71;100.00;101719.00;6097923;23;20006;-80
2022/09/23 02:23:53;;;;;;;24.50;20.50;;;;;;;6.69;100.00;101705.41;6098317;23;20314;-80
2022/09/23 02:26:44;;;;;;;24.48;21.40;;;;;;;6.57;100.00;101680.94;6098160;23;20029;-80
2022/09/23 02:29:20;;;;;;;27.00;20.80;;;;;;;6.86;100.00;101725.34;6098196;23;20006;-80
2022/09/23 02:32:13;;;;;;;28.40;21.02;;;;;;;6.86;100.00;101726.19;6098078;23;20273;-80
2022/09/23 02:34:57;;;;;;;23.92;19.23;;;;;;;6.86;100.00;101723.63;6072104;23;20013;-80
2022/09/23 02:37:34;;;;;;;23.23;19.95;;;;;;;6.65;100.00;101687.56;6098201;23;20075;-80
2022/09/23 02:40:11;;;;;;;25.05;20.33;;;;;;;6.80;100.00;101712.75;6098059;23;20013;-80
2022/09/23 02:43:05;;;;;;;22.58;19.85;;;;;;;6.78;100.00;101710.19;6098010;23;20007;-78
2022/09/23 02:45:30;;;;;;;23.10;19.02;;;;;;;6.72;100.00;101705.28;6098286;23;20011;-80
2022/09/23 02:48:03;;;;;;;24.30;19.30;;;;;;;6.52;100.00;101677.72;6097864;23;20007;-80
2022/09/23 02:50:30;;;;;;;24.65;19.80;;;;;;;6.30;100.00;101643.38;6097837;23;20007;-80
2022/09/23 02:52:57;;;;;;;24.40;19.42;;;;;;;6.35;100.00;101659.44;6098055;23;20007;-80
2022/09/23 02:55:25;;;;;;;22.33;19.20;;;;;;;6.60;100.00;101695.44;6098026;23;20006;-78
2022/09/23 02:57:52;;;;;;;22.27;19.00;;;;;;;6.56;100.00;101693.84;6098055;23;20073;-80
2022/09/23 03:00:17;;;;;;;20.92;18.60;;;;;;;6.52;100.00;101690.53;6098059;23;20007;-78
2022/09/23 03:03:24;;;;;;;23.23;19.80;;;;;;;6.39;100.00;101671.31;6097876;23;20032;-77
2022/09/23 03:05:55;;;;;;;23.70;19.60;;;;;;;6.46;100.00;101687.31;6097429;23;20002;-80
2022/09/23 03:08:43;;;;;;;20.58;18.33;;;;;;;6.21;100.00;101644.50;6098004;23;20008;-78
2022/09/23 03:11:12;;;;;;;21.63;18.73;;;;;;;6.39;100.00;101685.84;6097698;23;20010;-80
2022/09/23 03:14:16;;;;;;;21.55;18.67;;;;;;;6.36;100.00;101679.06;6097625;23;20010;-79
2022/09/23 03:16:57;;;;;;;23.13;19.08;;;;;;;6.30;100.00;101674.16;6097374;23;20337;-79
2022/09/23 03:19:52;;;;;;;22.52;19.13;;;;;;;6.29;100.00;101682.72;6097682;23;20030;-76
2022/09/23 03:22:25;;;;;;;24.15;20.80;;;;;;;6.26;100.00;101673.41;6097893;23;20014;-77
2022/09/23 03:24:53;;;;;;;23.67;19.10;;;;;;;5.94;100.00;101624.84;6097557;23;20053;-79
2022/09/23 03:27:22;;;;;;;23.08;19.15;;;;;;;6.15;100.00;101665.22;6097482;23;20329;-78
2022/09/23 03:29:50;;;;;;;22.27;19.60;;;;;;;6.23;100.00;101683.75;6097864;23;20014;-77
2022/09/23 03:32:19;;;;;;;21.67;18.55;;;;;;;6.08;100.00;101656.00;6096624;23;20007;-78
2022/09/23 03:34:48;;;;;;;23.48;19.60;;;;;;;6.16;100.00;101672.00;6097493;23;20061;-79
2022/09/23 03:37:38;;;;;;;26.75;19.77;;;;;;;6.12;100.00;101659.34;6071748;23;20018;-78
2022/09/23 03:40:25;;;;;;;25.02;19.77;;;;;;;6.21;100.00;101677.00;6097394;23;20009;-76
2022/09/23 03:42:55;;;;;;;22.90;19.63;;;;;;;6.02;100.00;101646.81;6097422;23;20030;-79
2022/09/23 03:45:25;;;;;;;25.77;19.75;;;;;;;6.22;100.00;101668.44;6097250;23;20007;-77
2022/09/23 03:47:50;;;;;;;24.45;19.52;;;;;;;6.09;100.00;101649.16;6097602;23;20337;-77
2022/09/23 03:50:16;;;;;;;25.33;19.83;;;;;;;6.19;100.00;101664.22;6097053;23;20002;-77
2022/09/23 03:52:42;;;;;;;24.05;19.65;;;;;;;6.19;100.00;101669.34;6097454;23;20022;-76
2022/09/23 03:55:08;;;;;;;23.10;19.13;;;;;;;5.97;100.00;101629.88;6097629;23;20017;-77
2022/09/23 03:57:34;;;;;;;22.00;19.17;;;;;;;5.94;100.00;101628.25;6097366;23;20021;-76
2022/09/23 04:00:00;;;;;;;23.50;20.02;;;;;;;6.18;100.00;101659.13;6097046;23;20451;-78
2022/09/23 04:02:26;;;;;;;24.35;19.65;;;;;;;6.05;100.00;101640.75;6071748;23;20081;-76
2022/09/23 04:04:51;;;;;;;26.20;20.27;;;;;;;6.18;100.00;101664.25;6071664;23;20011;-76
2022/09/23 04:07:16;;;;;;;23.35;18.88;;;;;;;6.12;100.00;101657.63;6097148;23;20017;-80
2022/09/23 04:09:42;;;;;;;23.00;20.15;;;;;;;6.17;100.00;101657.47;6096968;23;20306;-76
2022/09/23 04:12:12;;;;;;;25.15;19.55;;;;;;;6.14;100.00;101660.13;6097056;23;20037;-76
2022/09/23 04:14:37;;;;;;;23.42;18.52;;;;;;;6.08;100.00;101650.88;6097080;23;20437;-77
2022/09/23 04:17:03;;;;;;;25.73;20.02;;;;;;;6.10;100.00;101656.84;6097226;23;20009;-79
2022/09/23 04:19:28;;;;;;;21.67;18.38;;;;;;;6.10;100.00;101656.00;6097275;23;20163;-77
2022/09/23 04:21:53;;;;;;;23.83;19.27;;;;;;;5.50;100.00;101557.81;6097106;23;20036;-76
2022/09/23 04:24:19;;;;;;;21.80;17.70;;;;;;;6.03;100.00;101653.59;6097123;23;20052;-77
2022/09/23 04:26:44;;;;;;;24.45;20.05;;;;;;;6.09;100.00;101659.41;6097151;23;20428;-76
2022/09/23 04:29:10;;;;;;;23.90;19.95;;;;;;;6.10;100.00;101656.84;6071468;23;20012;-76
2022/09/23 04:31:36;;;;;;;25.17;20.23;;;;;;;6.08;100.00;101661.16;6096983;23;20325;-77
2022/09/23 04:34:01;;;;;;;25.38;19.48;;;;;;;5.97;100.00;101638.41;6097121;23;20007;-76
2022/09/23 04:36:28;;;;;;;22.90;20.42;;;;;;;6.08;100.00;101661.16;6096865;23;20329;-76
2022/09/23 04:38:53;;;;;;;24.55;21.38;;;;;;;6.08;100.00;101660.31;6096908;23;20377;-77
2022/09/23 04:41:18;;;;;;;25.02;20.80;;;;;;;6.09;100.00;101654.28;6096879;23;20057;-76
2022/09/23 04:43:44;;;;;;;22.88;19.23;;;;;;;6.10;100.00;101656.84;6097108;23;20064;-77
2022/09/23 04:46:12;;;;;;;22.13;18.90;;;;;;;6.11;100.00;101655.94;6096940;23;20014;-77
2022/09/23 04:48:40;;;;;;;23.23;20.00;;;;;;;5.99;100.00;101630.66;6097308;23;20084;-77
2022/09/23 04:51:18;;;;;;;22.92;19.73;;;;;;;6.15;100.00;101654.09;6097006;23;20013;-76
2022/09/23 04:53:45;;;;;;;26.83;19.85;;;;;;;6.16;100.00;101648.94;6096847;23;20007;-75
2022/09/23 04:56:16;;;;;;;24.90;19.70;;;;;;;6.19;100.00;101646.25;6097077;23;20003;-76
2022/09/23 04:58:43;;;;;;;26.05;20.48;;;;;;;6.12;100.00;101626.00;6071145;23;20018;-75
2022/09/23 05:01:17;;;;;;;23.20;19.67;;;;;;;6.26;100.00;101641.78;6097279;23;20011;-79
2022/09/23 05:03:44;;;;;;;33.08;20.83;;;;;;;6.21;100.00;101624.00;6096921;23;20010;-77
2022/09/23 05:06:12;;;;;;;30.55;21.42;;;;;;;6.11;100.00;101606.38;6071788;23;20006;-80
2022/09/23 05:08:48;;;;;;;23.55;20.63;;;;;;;6.36;100.00;101643.16;6071183;23;20396;-80
2022/09/23 05:11:14;;;;;;;23.08;19.98;;;;;;;6.37;100.00;101632.00;6096799;23;20065;-80
2022/09/23 05:13:39;;;;;;;25.60;20.92;;;;;;;6.26;100.00;101606.72;6096832;23;20010;-77
2022/09/23 05:16:08;;;;;;;23.45;19.73;;;;;;;6.51;100.00;101641.84;6097047;23;20381;-77
2022/09/23 05:18:35;;;;;;;26.70;20.63;;;;;;;6.56;100.00;101638.22;6096911;23;20333;-80
2022/09/23 05:21:03;;;;;;;26.75;20.77;;;;;;;6.56;100.00;101645.06;6097331;23;20006;-80
2022/09/23 05:23:29;;;;;;;27.08;21.40;;;;;;;6.52;100.00;101638.38;6098291;23;20022;-80
2022/09/23 05:26:11;;;;;;;22.35;19.67;;;;;;;6.57;100.00;101647.59;6099030;23;20092;-80
2022/09/23 05:28:38;;;;;;;23.65;19.33;;;;;;;6.42;100.00;101629.31;6098714;23;20003;-80
2022/09/23 05:31:04;;;;;;;23.25;19.20;;;;;;;6.59;100.00;101643.25;6098639;23;20006;-81
2022/09/23 05:33:30;;;;;;;25.30;19.98;;;;;;;6.48;100.00;101624.78;6072966;23;20017;-81
2022/09/23 05:35:55;;;;;;;22.70;18.85;;;;;;;6.65;100.00;101651.63;6098959;23;20013;-80
2022/09/23 05:38:20;;;;;;;25.45;20.95;;;;;;;6.68;100.00;101654.94;6098522;23;20034;-80
2022/09/23 05:40:46;;;;;;;24.85;20.60;;;;;;;6.73;100.00;101654.78;6098442;23;20010;-81
2022/09/23 05:43:11;;;;;;;25.48;20.63;;;;;;;6.63;100.00;101638.03;6098565;23;20007;-79
2022/09/23 05:45:36;;;;;;;26.00;19.67;;;;;;;6.80;100.00;101663.97;6072715;23;20008;-81
2022/09/23 05:48:02;;;;;;;26.67;19.88;;;;;;;6.66;100.00;101635.34;6098641;23;20429;-78
2022/09/23 05:50:27;;;;;;;26.95;20.77;;;;;;;6.88;100.00;101664.53;6097003;23;20417;-79
2022/09/23 05:52:53;;;;;;;28.85;21.10;;;;;;;6.77;100.00;101640.94;6098512;23;20013;-80
2022/09/23 05:55:19;;;;;;;24.52;20.92;;;;;;;6.97;100.00;101669.34;6098638;23;20007;-82
2022/09/23 05:57:44;;;;;;;25.17;19.92;;;;;;;6.90;100.00;101631.94;6098123;23;20345;-81
2022/09/23 06:00:10;;;;;;;25.15;20.45;;;;;;;7.02;100.00;101656.34;6073000;23;20477;-81
2022/09/23 06:02:35;;;;;;;28.30;21.27;;;;;;;7.14;100.00;101663.63;6098169;23;20385;-82
2022/09/23 06:05:01;;;;;;;25.55;19.80;;;;;;;7.04;100.00;101631.47;6098292;23;20009;-76
2022/09/23 06:07:26;;;;;;;25.92;19.80;;;;;;;7.29;100.00;101667.41;6097724;23;20413;-81
2022/09/23 06:09:52;;;;;;;28.92;20.65;;;;;;;7.27;100.00;101652.00;6098284;23;20006;-78
2022/09/23 06:12:18;;;;;;;23.58;19.80;;;;;;;7.29;100.00;101644.28;6098309;23;20007;-81
2022/09/23 06:14:44;;;;;;;25.17;20.42;;;;;;;7.48;100.00;101658.97;6098582;23;20002;-81
2022/09/23 06:17:09;;;;;;;26.80;19.63;;;;;;;7.42;100.00;101630.06;6098006;23;19999;-82
2022/09/23 06:19:34;;;;;;;26.02;20.08;;;;;;;7.56;100.00;101643.25;6071620;23;20006;-81
2022/09/23 06:22:00;;;;;;;25.90;20.13;;;;;;;7.66;100.00;101643.72;6098202;23;20009;-81
2022/09/23 06:24:25;;;;;;;26.73;19.35;;;;;;;7.75;100.00;101649.38;6097958;23;20013;-81
2022/09/23 06:26:50;;;;;;;25.73;19.83;;;;;;;7.76;100.00;101639.91;6098472;23;20090;-79
2022/09/23 06:29:17;;;;;;;26.60;19.15;;;;;;;7.91;100.00;101641.06;6098191;23;20025;-80
2022/09/23 06:31:42;;;;;;;22.27;18.38;;;;;;;7.98;100.00;101651.06;6097646;23;20002;-83
2022/09/23 06:34:12;;;;;;;23.27;18.63;;;;;;;8.00;100.00;101636.41;6097913;23;20012;-82
2022/09/23 06:36:38;;;;;;;23.92;19.08;;;;;;;8.16;100.00;101638.34;6098188;23;20385;-83
2022/09/23 06:39:03;;;;;;;22.25;17.95;;;;;;;8.26;100.00;101632.81;6098122;23;20007;-84
2022/09/23 06:41:29;;;;;;;21.13;17.85;;;;;;;8.34;100.00;101633.34;6098197;23;20325;-80
2022/09/23 06:43:54;;;;;;;24.23;18.23;;;;;;;8.44;100.00;101635.53;6097975;23;20428;-76
2022/09/23 06:46:20;;;;;;;21.33;17.80;;;;;;;8.57;100.00;101640.13;6098188;23;20041;-82
2022/09/23 06:48:45;;;;;;;24.00;17.77;;;;;;;8.55;100.00;101628.22;6097674;23;20006;-82
2022/09/23 06:51:18;;;;;;;22.33;17.27;;;;;;;8.46;100.00;101600.31;6097782;23;20006;-82
2022/09/23 06:53:47;;;;;;;26.88;18.70;;;;;;;8.71;100.00;101631.00;6097579;23;20014;-82
2022/09/23 06:56:13;;;;;;;23.25;18.00;;;;;;;8.80;100.00;101640.91;6097838;23;20143;-82
2022/09/23 06:58:39;;;;;;;21.90;16.60;;;;;;;8.70;100.00;101606.97;6097597;23;20044;-82
2022/09/23 07:01:10;;;;;;;22.40;17.15;;;;;;;8.99;100.00;101638.38;6097756;23;20014;-87
2022/09/23 07:03:37;;;;;;;21.35;17.55;;;;;;;9.00;100.00;101635.72;6097503;23;20010;-85
2022/09/23 07:06:06;;;;;;;24.67;17.10;;;;;;;9.13;100.00;101639.44;6097851;23;20082;-86
2022/09/23 07:08:33;;;;;;;24.92;18.27;;;;;;;9.26;100.00;101641.50;6098916;23;20006;-86
2022/09/23 07:11:00;;;;;;;23.77;17.05;;;;;;;9.08;100.00;101599.34;6099721;23;20013;-88
2022/09/23 07:13:26;;;;;;;24.98;17.10;;;;;;;9.43;100.00;101638.97;6100557;23;20014;-86
2022/09/23 07:15:54;;;;;;;21.90;16.85;;;;;;;9.52;100.00;101640.28;6102225;23;20025;-85
2022/09/23 07:18:47;;;;;;;;;;;;;;;;;;;;;
2022/09/23 07:21:26;;;;;;;23.95;16.23;;;;;;;9.78;99.50;101637.38;6098207;23;20085;-85
2022/09/23 07:26:38;;;;;;;20.75;16.63;;;;;;;8.91;97.31;101456.66;6099142;23;20029;-83
2022/09/23 07:29:15;;;;;;;20.58;15.88;;;;;;;9.43;97.43;101531.53;6072758;23;20010;-89
2022/09/23 07:31:57;;;;;;;21.48;15.45;;;;;;;10.24;97.17;101635.22;6096215;23;20341;-86
2022/09/23 07:34:22;;;;;;;19.30;15.32;;;;;;;9.61;95.78;101521.25;6102269;23;20385;-87
2022/09/23 07:36:48;;;;;;;22.20;15.50;;;;;;;9.62;95.07;101513.44;6101171;23;20018;-86
2022/09/23 07:39:13;;;;;;;19.17;14.52;;;;;;;9.72;95.01;101512.09;6099833;23;20006;-87
2022/09/23 07:41:43;;;;;;;21.13;15.93;;;;;;;9.83;93.54;101518.47;6101043;23;20085;-88
2022/09/23 07:44:30;;;;;;;18.92;15.27;;;;;;;10.29;93.56;101584.19;6072111;23;20477;-87
2022/09/23 07:47:02;;;;;;;21.73;16.20;;;;;;;9.72;93.75;101470.84;6071415;23;20017;-87
2022/09/23 07:49:28;;;;;;;23.23;16.42;;;;;;;10.10;93.16;101518.88;6098446;23;20002;-88
2022/09/23 07:51:53;;;;;;;21.65;15.65;;;;;;;10.23;90.89;101525.16;6073307;23;20074;-87
2022/09/23 07:54:18;;;;;;;22.17;16.65;;;;;;;10.95;91.46;101610.09;6072135;23;20336;-83
2022/09/23 07:56:44;;;;;;;23.70;16.48;;;;;;;10.87;90.80;101576.88;6096317;23;20010;-84
2022/09/23 07:59:19;;;;;;;20.75;15.23;;;;;;;11.27;91.18;101617.91;6072266;23;20436;-84
2022/09/23 08:02:08;;;;;;;23.05;15.07;;;;;;;10.52;90.60;101467.69;6072002;23;20038;-83
2022/09/23 08:04:42;;;;;;;21.58;15.65;;;;;;;10.52;87.61;101446.16;6096006;23;20023;-85
2022/09/23 08:07:15;;;;;;;20.58;14.18;;;;;;;10.98;87.83;101516.06;6097119;23;20090;-85
2022/09/23 08:09:44;;;;;;;19.13;14.25;;;;;;;10.75;87.12;101471.63;6067219;23;20010;-87
2022/09/23 08:12:16;;;;;;;16.98;13.70;;;;;;;10.88;88.07;101472.63;6071832;23;20413;-85
2022/09/23 08:14:58;;;;;;;19.42;13.88;;;;;;;11.23;88.12;101520.75;6070740;23;20022;-86
2022/09/23 08:17:26;;;;;;;16.60;13.13;;;;;;;11.09;85.55;101485.28;6071252;23;20007;-89
2022/09/23 08:26:06;;;;;;;21.65;13.57;;;;;;;11.71;85.38;101543.91;6098901;23;20053;-87
2022/09/23 08:29:11;;;;;;;17.10;13.05;;;;;;;12.43;85.71;101642.53;6098124;23;20009;-87
2022/09/23 08:31:36;;;;;;;16.65;12.35;;;;;;;12.01;84.05;101580.19;6097454;23;20045;-84
2022/09/23 08:34:15;;;;;;;16.52;12.95;;;;;;;11.39;84.56;101462.06;6098651;23;20007;-89
2022/09/23 08:36:41;;;;;;;18.35;12.57;;;;;;;12.51;83.17;101633.41;6072799;23;20013;-86
2022/09/23 08:45:24;;;;;;;17.75;12.70;;;;;;;12.90;83.29;101650.97;6098042;23;20405;-85
2022/09/23 08:48:24;;;;;;;;;;;;;;;;;;;;;
2022/09/23 08:51:05;;;;;;;15.73;11.13;;;;;;;12.05;80.43;101470.34;6096442;23;20399;-88
2022/09/23 08:53:35;;;;;;;14.38;11.38;;;;;;;13.22;79.67;101642.19;6096949;23;20421;-85
2022/09/23 08:56:27;;;;;;;18.67;12.15;;;;;;;13.38;81.76;101640.34;6098106;23;20002;-86
2022/09/23 09:02:22;;;;;;;16.00;11.07;;;;;;;13.29;78.45;101570.88;6098885;23;20021;-86
2022/09/23 09:05:02;;;;;;;15.75;11.80;;;;;;;12.97;77.59;101500.19;6098975;23;20002;-85
2022/09/23 09:07:54;;;;;;;14.55;10.65;;;;;;;13.53;76.90;101558.91;6098805;23;20010;-85
2022/09/23 09:10:19;;;;;;;19.63;10.98;;;;;;;14.17;74.21;101632.69;6098703;23;20006;-80
2022/09/23 09:12:48;;;;;;;17.55;10.40;;;;;;;14.30;75.06;101633.53;6073531;23;20036;-80
2022/09/23 09:15:27;;;;;;;15.45;10.63;;;;;;;13.64;75.29;101506.31;6098907;23;20010;-80
2022/09/23 09:18:18;;;;;;;15.95;10.85;;;;;;;13.58;74.67;101470.41;6098884;23;20041;-80
2022/09/23 09:21:26;;;;;;;17.00;11.05;;;;;;;14.12;75.40;101525.63;6098590;23;20341;-80
2022/09/23 09:24:16;;;;;;;14.98;11.02;;;;;;;14.91;72.95;101626.84;6098564;23;20445;-80
2022/09/23 09:26:41;;;;;;;14.55;11.07;;;;;;;14.36;72.30;101525.78;6098268;23;20007;-83
2022/09/23 09:29:46;;;;;;;15.60;10.75;;;;;;;15.22;74.46;101627.31;6098904;23;20431;-82
2022/09/23 09:32:49;;;;;;;14.63;10.75;;;;;;;15.46;73.13;101624.78;6098380;23;20006;-81
2022/09/23 09:35:49;;;;;;;15.05;9.20;;;;;;;15.61;71.55;101618.50;6074056;23;20341;-82
2022/09/23 09:38:15;;;;;;;16.88;10.20;;;;;;;15.20;69.17;101538.16;6098693;23;20030;-79
2022/09/23 09:40:47;;;;;;;17.25;10.18;;;;;;;14.98;69.41;101486.81;6098459;23;20010;-80
2022/09/23 09:43:22;;;;;;;15.75;10.30;;;;;;;15.34;67.98;101534.53;6095576;23;20010;-81
2022/09/23 09:46:28;;;;;;;15.15;10.70;;;;;;;15.33;68.36;101525.91;6098494;23;20333;-80
2022/09/23 09:49:12;;;;;;;15.63;10.30;;;;;;;15.49;68.92;101549.06;6098524;23;20006;-82
2022/09/23 09:51:41;;;;;;;15.60;10.20;;;;;;;14.91;67.46;101444.81;6098535;23;20068;-80
2022/09/23 09:54:23;;;;;;;17.13;10.82;;;;;;;15.95;68.34;101597.84;6098770;23;20006;-80
2022/09/23 09:56:50;;;;;;;14.98;9.30;;;;;;;15.32;66.30;101480.00;6073365;23;20353;-78
2022/09/23 09:59:22;;;;;;;13.93;9.27;;;;;;;16.15;65.20;101606.81;6098484;23;20041;-79
2022/09/23 10:01:47;;;;;;;15.93;9.38;;;;;;;16.00;65.52;101572.28;6073815;23;20003;-79
2022/09/23 10:04:33;;;;;;;19.70;12.10;;;;;;;16.37;67.26;101604.25;6098671;23;20433;-80
2022/09/23 10:07:04;;;;;;;16.13;8.93;;;;;;;16.55;66.47;101605.47;6097853;23;20003;-79
2022/09/23 10:09:32;;;;;;;;;;;;;;;16.74;69.83;101596.28;6098860;23;20006;-80
2022/09/23 10:12:14;;;;;;;13.95;8.80;;;;;;;16.69;65.78;101580.16;6098405;23;19909;-80
2022/09/23 10:14:41;;;;;;;16.15;8.90;;;;;;;16.56;64.03;101557.59;6098073;23;20460;-78
2022/09/23 10:17:14;;;;;;;15.95;9.02;;;;;;;16.80;62.65;101594.03;6098116;23;20424;-79
2022/09/23 10:19:46;;;;;;;13.90;8.30;;;;;;;16.71;63.77;101576.47;6097914;23;20002;-78
2022/09/23 10:22:22;;;;;;;13.95;8.00;;;;;;;16.90;62.86;101594.97;6098222;23;20013;-80
2022/09/23 10:24:51;;;;;;;12.68;8.18;;;;;;;16.82;62.67;101567.84;6097818;23;20006;-79
2022/09/23 10:27:30;;;;;;;13.13;8.65;;;;;;;16.98;61.91;101575.28;6098073;23;20006;-79
2022/09/23 10:29:58;;;;;;;13.13;7.80;;;;;;;17.13;61.02;101592.38;6097909;23;20460;-79
2022/09/23 10:32:36;;;;;;;11.32;6.60;;;;;;;17.22;58.28;101593.44;6097697;23;20422;-79
2022/09/23 10:35:13;;;;;;;12.45;6.97;;;;;;;17.30;59.29;101586.63;6097800;23;20447;-79
2022/09/23 10:37:42;;;;;;;11.63;7.03;;;;;;;17.35;59.42;101581.88;6097816;23;20093;-80
2022/09/23 10:46:40;;;;;;;9.13;5.45;;;;;;;17.73;60.83;101573.63;6097330;23;20021;-81
2022/09/23 10:49:33;;;;;;;10.52;6.00;;;;;;;17.83;59.96;101591.16;6073846;23;20013;-81
2022/09/23 10:52:21;;;;;;;10.05;5.85;;;;;;;17.93;59.09;101592.06;6097911;23;20011;-82
2022/09/23 10:55:04;;;;;;;8.85;5.65;;;;;;;18.01;58.33;101587.88;6097954;23;20011;-81
2022/09/23 10:57:41;;;;;;;11.10;7.10;;;;;;;17.99;58.54;101581.94;6097962;23;20010;-78
2022/09/23 11:00:39;;;;;;;9.93;5.80;;;;;;;18.00;56.42;101580.16;6097798;23;20341;-78
2022/09/23 11:03:26;;;;;;;8.05;4.78;;;;;;;18.04;57.69;101581.56;6097416;23;20041;-78
2022/09/23 11:06:11;;;;;;;9.55;4.97;;;;;;;17.80;55.07;101546.97;6097989;23;20069;-81
2022/09/23 11:08:40;;;;;;;12.45;5.82;;;;;;;18.02;56.63;101579.06;6097945;23;20002;-81
2022/09/23 11:11:22;;;;;;;8.55;5.82;;;;;;;18.06;57.93;101579.63;6097623;23;20006;-81
2022/09/23 11:13:48;;;;;;;11.60;5.85;;;;;;;18.20;56.21;101583.75;6097082;23;20065;-81
2022/09/23 11:16:55;;;;;;;10.90;6.20;;;;;;;18.40;58.19;101582.06;6097516;23;20456;-79
2022/09/23 11:19:34;;;;;;;9.93;5.85;;;;;;;18.54;56.13;101571.25;6097867;23;20006;-79
2022/09/23 11:22:42;;;;;;;15.77;5.43;;;;;;;18.70;57.55;101576.91;6097455;23;20378;-81
2022/09/23 11:25:37;;;;;;;11.48;5.18;;;;;;;18.70;53.40;101568.22;5981121;24;20407;-83
2022/09/23 11:28:03;;;;;;;9.02;5.10;;;;;;;18.66;54.38;101566.81;5980486;24;20011;-79
2022/09/23 11:31:04;;;;;;;12.30;4.95;;;;;;;18.85;55.64;101564.28;5957751;24;20041;-79
2022/09/23 11:34:05;;;;;;;10.40;4.97;;;;;;;18.91;55.04;101566.38;5925119;24;20040;-80
2022/09/23 11:36:42;;;;;;;9.65;4.70;;;;;;;18.92;53.74;101566.22;5897979;24;20009;-79
2022/09/23 11:39:21;;;;;;;9.18;4.47;;;;;;;18.90;54.00;101542.00;5898143;24;20010;-78
2022/09/23 11:41:51;;;;;;;7.30;4.60;;;;;;;18.91;51.97;101546.25;5898023;24;20146;-80
2022/09/23 11:44:25;;;;;;;9.02;4.32;;;;;;;18.93;52.53;101546.13;5897700;24;20026;-80
2022/09/23 11:47:23;;;;;;;10.07;4.07;;;;;;;19.08;52.82;101550.03;5898127;24;20017;-78
2022/09/23 11:50:18;;;;;;;8.95;4.22;;;;;;;19.15;52.05;101558.16;5898072;24;20255;-80
2022/09/23 11:52:49;;;;;;;9.20;4.30;;;;;;;19.07;51.23;101547.53;5897931;24;20096;-80
2022/09/23 11:55:18;;;;;;;9.80;4.78;;;;;;;19.05;50.98;101552.06;5897931;24;20009;-80
2022/09/23 11:57:56;;;;;;;7.38;4.00;;;;;;;19.16;53.15;101547.53;5897731;24;20014;-80
2022/09/23 12:00:25;;;;;;;12.43;5.20;;;;;;;19.14;51.82;101532.94;5896600;24;20013;-77
2022/09/23 12:03:00;;;;;;;9.20;4.32;;;;;;;19.17;50.64;101527.44;5963506;24;20440;-78
2022/09/23 12:05:33;;;;;;;11.15;5.25;;;;;;;19.18;50.73;101526.50;5980542;23;20461;-78
2022/09/23 12:08:16;;;;;;;8.95;4.30;;;;;;;19.26;51.41;101537.09;5980405;24;20034;-80
2022/09/23 12:11:18;;;;;;;9.25;4.90;;;;;;;19.10;50.20;101495.75;6001886;23;20035;-79